createdAt,value
2022-09-10T00:00:57.084Z,6.7
2022-09-10T00:03:00.628Z,6.2
2022-09-10T00:05:07.133Z,6.4
2022-09-10T00:07:10.587Z,6.7
2022-09-10T00:09:14.092Z,6.2
2022-09-10T00:11:17.551Z,5.8
2022-09-10T00:19:34.519Z,5.6
2022-09-10T00:24:44.760Z,6.5
2022-09-10T00:26:48.205Z,5.4
2022-09-10T00:28:51.693Z,5.5
2022-09-10T00:30:55.172Z,6.1
2022-09-10T00:33:01.713Z,6.2
2022-09-10T00:35:05.205Z,6.8
2022-09-10T00:37:08.658Z,6.7
2022-09-10T00:41:15.610Z,6
2022-09-10T00:43:19.086Z,6.1
2022-09-10T00:45:22.625Z,5.6
2022-09-10T00:47:29.126Z,7.2
2022-09-10T00:49:32.580Z,5.8
2022-09-10T00:51:36.064Z,6.6
2022-09-10T00:53:39.523Z,6.5
2022-09-10T00:57:46.476Z,6.8
2022-09-10T00:59:49.982Z,6.5
2022-09-10T01:01:56.524Z,8.1
2022-09-10T01:04:00.007Z,8
2022-09-10T01:06:03.432Z,8.2
2022-09-10T01:08:06.937Z,7.3
2022-09-10T01:10:10.391Z,7.1
2022-09-10T01:12:13.886Z,7.6
2022-09-10T01:14:17.344Z,8.1
2022-09-10T01:18:27.383Z,7.7
2022-09-10T01:20:30.840Z,8.9
2022-09-10T01:22:54.885Z,9.2
2022-09-10T01:29:08.373Z,9
2022-09-10T01:33:15.339Z,9.3
2022-09-10T01:37:22.226Z,8.6
2022-09-10T01:39:25.690Z,8.5
2022-09-10T01:41:29.132Z,8.9
2022-09-10T01:45:39.179Z,9.9
2022-09-10T01:49:46.046Z,9.6
2022-09-10T01:55:56.426Z,9.9
2022-09-10T02:00:06.486Z,9.4
2022-09-10T02:02:10.009Z,11.1
2022-09-10T02:04:13.401Z,11.2
2022-09-10T02:06:16.847Z,10.9
2022-09-10T02:08:20.322Z,11.7
2022-09-10T02:10:23.761Z,12.2
2022-09-10T02:12:30.355Z,13.5
2022-09-10T02:14:33.793Z,12.4
2022-09-10T02:16:37.313Z,11.9
2022-09-10T02:19:43.986Z,13
2022-09-10T02:21:47.422Z,13.4
2022-09-10T02:23:50.904Z,14.4
2022-09-10T02:25:57.429Z,14.8
2022-09-10T02:28:00.894Z,14.4
2022-09-10T02:30:04.341Z,14
2022-09-10T02:36:14.722Z,14.9
2022-09-10T02:38:18.201Z,15.4
2022-09-10T02:40:24.736Z,15.1
2022-09-10T02:52:45.511Z,16
2022-09-10T02:54:52.104Z,15.9
2022-09-10T03:01:05.436Z,14.1
2022-09-10T03:03:05.885Z,14.8
2022-09-10T03:05:11.347Z,14.2
2022-09-10T03:09:19.383Z,15.5
2022-09-10T03:11:22.811Z,15.3
2022-09-10T03:13:26.277Z,14.6
2022-09-10T03:14:29.569Z,16
2022-09-10T03:16:33.075Z,14.5
2022-09-10T03:18:36.507Z,14
2022-09-10T03:20:39.980Z,14.7
2022-09-10T03:22:46.468Z,15.7
2022-09-10T03:24:49.942Z,16
2022-09-10T03:28:56.845Z,15.4
2022-09-10T03:43:24.137Z,14.9
2022-09-10T03:49:34.489Z,16.6
2022-09-10T03:53:44.508Z,16.2
2022-09-10T03:55:47.952Z,15.8
2022-09-10T03:59:54.869Z,15.6
2022-09-10T04:04:01.791Z,17
2022-09-10T04:06:08.513Z,17.7
2022-09-10T04:08:11.809Z,15.6
2022-09-10T04:10:15.241Z,16.6
2022-09-10T04:11:18.646Z,16.6
2022-09-10T04:13:52.452Z,15.3
2022-09-10T04:15:25.399Z,16.3
2022-09-10T04:20:34.560Z,17.7
2022-09-10T04:23:43.812Z,16.3
2022-09-10T04:25:47.285Z,15.4
2022-09-10T04:29:54.189Z,16.8
2022-09-10T04:31:57.653Z,15.5
2022-09-10T04:34:04.155Z,16.3
2022-09-10T04:36:07.606Z,15.7
2022-09-10T04:38:11.047Z,15.7
2022-09-10T04:40:14.549Z,16.1
2022-09-10T04:42:17.951Z,16
2022-09-10T04:44:21.378Z,16
2022-09-10T04:46:24.855Z,14.6
2022-09-10T04:48:31.531Z,16.2
2022-09-10T04:52:38.243Z,14.6
2022-09-10T04:54:41.643Z,14
2022-09-10T04:56:45.108Z,14.6
2022-09-10T04:58:48.582Z,14.3
2022-09-10T05:00:52.073Z,14.4
2022-09-10T05:02:58.531Z,15.6
2022-09-10T05:05:01.970Z,14.7
2022-09-10T05:07:05.437Z,15.4
2022-09-10T05:13:36.612Z,14.2
2022-09-10T05:17:46.619Z,15.9
2022-09-10T05:21:53.523Z,15.1
2022-09-10T05:23:56.989Z,13.4
2022-09-10T05:26:00.473Z,14.4
2022-09-10T05:28:03.920Z,13.7
2022-09-10T05:30:10.416Z,15.7
2022-09-10T05:32:13.877Z,16.2
2022-09-10T05:34:17.341Z,15.5
2022-09-10T05:36:20.801Z,14.6
2022-09-10T05:38:24.379Z,15.6
2022-09-10T05:40:27.733Z,15.7
2022-09-10T05:42:31.179Z,15.9
2022-09-10T05:44:37.740Z,17.7
2022-09-10T05:46:41.194Z,17.5
2022-09-10T05:48:44.731Z,15.9
2022-09-10T05:50:48.064Z,15.9
2022-09-10T05:52:51.548Z,17.5
2022-09-10T05:54:54.991Z,17.8
2022-09-10T05:56:58.459Z,17.5
2022-09-10T05:59:05.048Z,19.5
2022-09-10T06:01:08.489Z,19.5
2022-09-10T06:04:15.222Z,19.2
2022-09-10T06:06:18.663Z,19.3
2022-09-10T06:08:22.102Z,17.2
2022-09-10T06:10:25.595Z,16.9
2022-09-10T06:12:32.157Z,16.9
2022-09-10T06:14:35.600Z,16.7
2022-09-10T06:16:39.101Z,15.2
2022-09-10T06:18:42.514Z,17.4
2022-09-10T06:20:45.938Z,17.4
2022-09-10T06:22:49.428Z,17.2
2022-09-10T06:24:52.878Z,17.5
2022-09-10T06:26:59.458Z,17.9
2022-09-10T06:29:02.890Z,16.7
2022-09-10T06:31:06.375Z,15.4
2022-09-10T06:33:09.790Z,17.4
2022-09-10T06:35:13.271Z,16.6
2022-09-10T06:37:16.712Z,16.2
2022-09-10T06:39:20.156Z,16
2022-09-10T06:41:26.683Z,16.4
2022-09-10T06:43:30.167Z,15.8
2022-09-10T06:45:33.702Z,13.5
2022-09-10T06:48:32.305Z,15.6
2022-09-10T06:49:40.498Z,15.6
2022-09-10T06:53:47.407Z,14.4
2022-09-10T06:57:57.391Z,14.7
2022-09-10T07:01:04.098Z,15.6
2022-09-10T07:03:07.559Z,14.1
2022-09-10T07:05:10.987Z,13
2022-09-10T07:09:20.950Z,14.8
2022-09-10T07:11:24.435Z,13.2
2022-09-10T07:13:27.886Z,13.1
2022-09-10T07:15:31.300Z,12.2
2022-09-10T07:17:34.711Z,12.3
2022-09-10T07:23:48.079Z,11
2022-09-10T07:25:51.532Z,9
2022-09-10T07:27:54.979Z,9.5
2022-09-10T07:29:58.355Z,9.1
2022-09-10T07:32:01.815Z,9.1
2022-09-10T07:34:05.221Z,9.7
2022-09-10T07:36:08.644Z,9.4
2022-09-10T07:38:15.194Z,7.5
2022-09-10T07:40:18.605Z,7.7
2022-09-10T07:42:22.025Z,6.3
2022-09-10T07:44:25.449Z,5.9
2022-09-10T07:46:28.862Z,6.2
2022-09-10T07:48:32.277Z,7.2
2022-09-10T07:50:35.658Z,6.4
2022-09-10T07:56:49.021Z,6.5
2022-09-10T08:01:59.200Z,7.5
2022-09-10T08:08:12.454Z,7.3
2022-09-10T08:10:15.877Z,7.1
2022-09-10T08:12:19.313Z,7
2022-09-10T08:14:22.718Z,6.7
2022-09-10T08:16:26.185Z,4.5
2022-09-10T08:18:29.668Z,6.5
2022-09-10T08:20:36.070Z,6.1
2022-09-10T08:22:39.483Z,6.7
2022-09-10T08:24:42.919Z,6.1
2022-09-10T08:26:46.308Z,5.8
2022-09-10T08:28:49.901Z,5.2
2022-09-10T08:30:53.222Z,6.8
2022-09-10T08:32:56.615Z,5.9
2022-09-10T08:35:03.102Z,6.4
2022-09-10T08:37:06.523Z,7.2
2022-09-10T08:39:09.964Z,6.9
2022-09-10T08:45:20.260Z,7.5
2022-09-10T08:47:23.680Z,7.1
2022-09-10T08:49:30.699Z,8.1
2022-09-10T08:51:34.140Z,7.6
2022-09-10T08:53:37.557Z,8
2022-09-10T08:56:01.587Z,7.8
2022-09-10T08:58:05.022Z,7.3
2022-09-10T09:00:08.460Z,6.8
2022-09-10T09:02:31.604Z,7.7
2022-09-10T09:04:18.437Z,7
2022-09-10T09:08:25.271Z,7.5
2022-09-10T09:10:28.738Z,6.7
2022-09-10T09:12:32.167Z,7.1
2022-09-10T09:14:35.556Z,8
2022-09-10T09:18:56.634Z,6.6
2022-09-10T09:20:48.947Z,6.2
2022-09-10T09:22:52.387Z,6.3
2022-09-10T09:24:55.808Z,6.4
2022-09-10T09:26:59.224Z,6.8
2022-09-10T09:29:02.672Z,6
2022-09-10T09:31:09.618Z,5.6
2022-09-10T09:33:12.618Z,6.9
2022-09-10T09:35:16.067Z,6.7
2022-09-10T09:39:25.496Z,7.4
2022-09-10T09:43:29.859Z,7.1
2022-09-10T09:45:36.371Z,7.4
2022-09-10T09:47:39.707Z,6.6
2022-09-10T09:49:43.170Z,6.8
2022-09-10T09:50:46.405Z,6.9
2022-09-10T09:52:49.863Z,8
2022-09-10T09:55:13.778Z,6.7
2022-09-10T09:56:56.699Z,7.2
2022-09-10T09:59:03.181Z,6.9
2022-09-10T10:01:06.626Z,6.6
2022-09-10T10:03:10.008Z,6.9
2022-09-10T10:05:13.394Z,6.8
2022-09-10T10:07:16.807Z,6.9
2022-09-10T10:11:23.550Z,6
2022-09-10T10:13:30.038Z,7.2
2022-09-10T10:15:35.048Z,6.3
2022-09-10T10:19:41.728Z,5.6
2022-09-10T10:25:51.931Z,6.5
2022-09-10T10:27:58.429Z,6.1
2022-09-10T10:30:01.802Z,6.5
2022-09-10T10:32:05.895Z,5.7
2022-09-10T10:34:08.502Z,6.7
2022-09-10T10:36:11.914Z,6.1
2022-09-10T10:38:15.282Z,6.3
2022-09-10T10:40:18.690Z,6
2022-09-10T10:47:35.061Z,7
2022-09-10T10:49:38.360Z,5.3
2022-09-10T10:51:41.722Z,6.6
2022-09-10T10:55:51.390Z,5.2
2022-09-10T11:02:01.341Z,4.3
2022-09-10T11:04:04.470Z,4.1
2022-09-10T11:06:07.721Z,3.5
2022-09-10T11:08:11.065Z,3.2
2022-09-10T11:10:17.212Z,2.6
2022-09-10T11:12:20.429Z,2
2022-09-10T11:14:23.664Z,2.5
2022-09-10T11:16:26.879Z,2.4
2022-09-10T11:18:30.093Z,1.9
2022-09-10T11:20:33.307Z,2.1
2022-09-10T11:22:36.508Z,2.5
2022-09-10T11:24:43.951Z,2.2
2022-09-10T11:26:45.922Z,2.7
2022-09-10T11:28:49.022Z,1.9
2022-09-10T11:30:52.233Z,2
2022-09-10T11:32:55.274Z,1.8
2022-09-10T11:34:58.367Z,2.7
2022-09-10T11:37:01.492Z,2.1
2022-09-10T11:39:07.606Z,2.4
2022-09-10T11:41:10.733Z,3.2
2022-09-10T11:43:13.813Z,2
2022-09-10T11:48:23.093Z,2.1
2022-09-10T11:50:26.193Z,2.1
2022-09-10T11:52:32.353Z,2.3
2022-09-10T11:54:35.500Z,2
2022-09-10T11:58:41.744Z,1.9
2022-09-10T12:00:44.901Z,1.4
2022-09-10T12:02:48.058Z,0.8
2022-09-10T12:04:51.195Z,0.7
2022-09-10T12:06:57.360Z,0.5
2022-09-10T12:09:00.500Z,1.1
2022-09-10T12:11:03.621Z,1.4
2022-09-10T12:13:06.808Z,0.7
2022-09-10T12:15:09.905Z,1
2022-09-10T12:17:13.043Z,0.6
2022-09-10T12:19:16.131Z,0.3
2022-09-10T12:21:22.226Z,0.7
2022-09-10T12:23:25.282Z,0.7
2022-09-10T12:25:31.770Z,0.6
2022-09-10T12:27:31.337Z,0.6
2022-09-10T12:29:34.341Z,0.6
2022-09-10T12:31:37.310Z,0.4
2022-09-10T12:33:40.454Z,0.9
2022-09-10T12:35:46.300Z,1.6
2022-09-10T12:37:49.213Z,1.6
2022-09-10T12:39:52.177Z,1.5
2022-09-10T12:44:18.628Z,0.9
2022-09-10T12:48:27.505Z,1.5
2022-09-10T12:50:30.381Z,1.2
2022-09-10T12:52:33.330Z,1.3
2022-09-10T12:54:36.275Z,1.4
2022-09-10T12:56:39.165Z,1.5
2022-09-10T12:58:42.074Z,1.5
2022-09-10T13:00:45.168Z,1
2022-09-10T13:02:51.042Z,0.9
2022-09-10T13:04:54.038Z,0.8
2022-09-10T13:06:57.037Z,0.8
2022-09-10T13:09:00.035Z,0.7
2022-09-10T13:11:03.191Z,0.7
2022-09-10T13:13:06.072Z,0.7
2022-09-10T13:15:09.092Z,0.7
2022-09-10T13:17:15.151Z,0.9
2022-09-10T13:21:21.275Z,1
2022-09-10T13:23:24.328Z,0.8
2022-09-10T13:25:27.408Z,1
2022-09-10T13:27:30.438Z,1
2022-09-10T13:29:33.531Z,1.3
2022-09-10T13:33:42.776Z,0.6
2022-09-10T13:35:45.693Z,1.2
2022-09-10T13:36:48.863Z,1.5
2022-09-10T13:38:51.828Z,1.8
2022-09-10T13:40:54.909Z,1
2022-09-10T13:42:58.010Z,1.2
2022-09-10T13:47:07.197Z,0.9
2022-09-10T13:51:15.047Z,1.3
2022-09-10T13:53:16.510Z,1.1
2022-09-10T13:55:19.626Z,1.2
2022-09-10T13:57:22.735Z,1.6
2022-09-10T13:59:28.905Z,0.9
2022-09-10T14:03:35.112Z,1.8
2022-09-10T14:05:38.217Z,1.5
2022-09-10T14:07:41.350Z,1.4
2022-09-10T14:09:44.423Z,1.8
2022-09-10T14:11:47.531Z,2.2
2022-09-10T14:13:53.639Z,3.7
2022-09-10T14:15:56.803Z,1.8
2022-09-10T14:18:00.584Z,1.5
2022-09-10T14:20:03.731Z,1.6
2022-09-10T14:22:09.933Z,1.8
2022-09-10T14:28:19.240Z,1.8
2022-09-10T14:30:22.299Z,1.5
2022-09-10T14:32:25.436Z,2.4
2022-09-10T14:33:28.509Z,1.9
2022-09-10T14:35:31.670Z,1.7
2022-09-10T14:37:34.791Z,1.9
2022-09-10T14:39:38.012Z,2.1
2022-09-10T14:41:44.124Z,1.7
2022-09-10T14:43:47.273Z,1.7
2022-09-10T14:49:56.736Z,2.6
2022-09-10T14:54:03.029Z,2.5
2022-09-10T14:56:09.224Z,2.3
2022-09-10T15:00:15.566Z,3
2022-09-10T15:04:21.883Z,2.3
2022-09-10T15:06:26.583Z,2.9
2022-09-10T15:08:28.194Z,2.4
2022-09-10T15:10:34.420Z,2.5
2022-09-10T15:12:37.594Z,2
2022-09-10T15:14:40.753Z,2.1
2022-09-10T15:16:43.933Z,2
2022-09-10T15:18:47.111Z,1.8
2022-09-10T15:20:50.282Z,1.8
2022-09-10T15:22:53.450Z,2
2022-09-10T15:25:09.657Z,2.1
2022-09-10T15:27:02.767Z,2.7
2022-09-10T15:29:05.940Z,2.3
2022-09-10T15:30:09.058Z,3
2022-09-10T15:32:12.207Z,2.2
2022-09-10T15:34:15.354Z,1.9
2022-09-10T15:36:18.551Z,2.4
2022-09-10T15:38:24.739Z,1.9
2022-09-10T15:40:27.866Z,1.9
2022-09-10T15:42:31.048Z,1.8
2022-09-10T15:44:34.229Z,1.5
2022-09-10T15:46:37.430Z,1.2
2022-09-10T15:48:40.755Z,1.3
2022-09-10T15:50:43.740Z,1.3
2022-09-10T15:52:49.949Z,1.2
2022-09-10T15:54:53.232Z,1.5
2022-09-10T15:56:56.316Z,1.4
2022-09-10T15:58:59.478Z,1.4
2022-09-10T16:01:02.668Z,0.9
2022-09-10T16:03:05.880Z,1.3
2022-09-10T16:05:09.064Z,1.2
2022-09-10T16:07:15.411Z,1.1
2022-09-10T16:11:23.439Z,1
2022-09-10T16:13:26.605Z,1.2
2022-09-10T16:15:29.926Z,1.2
2022-09-10T16:17:33.229Z,1.1
2022-09-10T16:19:36.454Z,1.5
2022-09-10T16:23:45.973Z,1.3
2022-09-10T16:25:49.179Z,1.8
2022-09-10T16:28:12.850Z,1.5
2022-09-10T16:30:16.087Z,1.7
2022-09-10T16:32:19.393Z,1.5
2022-09-10T16:34:25.618Z,2.2
2022-09-10T16:36:28.851Z,2.5
2022-09-10T16:38:32.081Z,1.8
2022-09-10T16:40:35.283Z,1.5
2022-09-10T16:42:38.501Z,1.6
2022-09-10T16:44:41.811Z,1.7
2022-09-10T16:48:51.275Z,3.7
2022-09-10T16:50:54.502Z,2.5
2022-09-10T16:52:57.724Z,2.1
2022-09-10T16:55:00.930Z,1.9
2022-09-10T16:57:04.161Z,1.9
2022-09-10T16:59:07.418Z,2.1
2022-09-10T17:01:10.619Z,1.9
2022-09-10T17:03:16.995Z,2.3
2022-09-10T17:05:20.311Z,2.3
2022-09-10T17:07:23.641Z,2.8
2022-09-10T17:09:26.968Z,2.5
2022-09-10T17:11:30.225Z,2.6
2022-09-10T17:13:34.238Z,2.8
2022-09-10T17:15:36.726Z,3.2
2022-09-10T17:17:43.014Z,3.3
2022-09-10T17:19:46.259Z,3.5
2022-09-10T17:21:49.490Z,4.3
2022-09-10T17:26:59.196Z,3.7
2022-09-10T17:37:18.586Z,5.2
2022-09-10T17:41:25.276Z,6.7
2022-09-10T17:57:55.185Z,5.5
2022-09-10T18:02:05.157Z,5
2022-09-10T18:04:08.400Z,5.3
2022-09-10T18:06:11.759Z,4.8
2022-09-10T18:08:15.163Z,5.6
2022-09-10T18:10:18.512Z,5.5
2022-09-10T18:14:28.356Z,5.6
2022-09-10T18:16:31.737Z,5.4
2022-09-10T18:18:35.147Z,5.5
2022-09-10T18:19:38.364Z,5.9
2022-09-10T18:23:45.086Z,5.8
2022-09-10T18:25:50.087Z,6.7
2022-09-10T18:27:54.998Z,5.5
2022-09-10T18:29:58.381Z,6.3
2022-09-10T18:32:01.773Z,6.1
2022-09-10T18:34:05.119Z,6.5
2022-09-10T18:36:08.514Z,6
2022-09-10T18:38:11.878Z,5.2
2022-09-10T18:40:15.264Z,6.6
2022-09-10T18:42:21.754Z,5.5
2022-09-10T18:44:25.077Z,5
2022-09-10T18:46:28.555Z,5.7
2022-09-10T18:48:31.831Z,5.7
2022-09-10T18:50:35.108Z,5.2
2022-09-10T18:52:38.490Z,6.3
2022-09-10T18:58:51.688Z,5.7
2022-09-10T19:00:58.490Z,6.4
2022-09-10T19:02:58.325Z,7.4
2022-09-10T19:07:05.123Z,6.5
2022-09-10T19:09:08.458Z,6.1
2022-09-10T19:11:14.958Z,5.8
2022-09-10T19:13:18.320Z,6.5
2022-09-10T19:15:21.669Z,6.6
2022-09-10T19:16:24.943Z,6.3
2022-09-10T19:18:28.254Z,6.4
2022-09-10T19:22:34.942Z,7.5
2022-09-10T19:26:44.827Z,7.4
2022-09-10T19:28:48.175Z,7
2022-09-10T19:32:54.887Z,7.7
2022-09-10T19:41:11.517Z,8.6
2022-09-10T19:43:14.921Z,9.5
2022-09-10T19:45:18.465Z,9.2
2022-09-10T19:47:21.678Z,8.7
2022-09-10T19:49:25.008Z,9.3
2022-09-10T19:51:29.528Z,10.1
2022-09-10T19:53:34.885Z,11
2022-09-10T19:55:38.262Z,8.9
2022-09-10T19:57:41.692Z,9.3
2022-09-10T19:59:45.118Z,11
2022-09-10T20:01:48.645Z,10.5
2022-09-10T20:03:51.899Z,11
2022-09-10T20:05:55.320Z,10.3
2022-09-10T20:08:01.844Z,11.8
2022-09-10T20:10:05.232Z,11.1
2022-09-10T20:12:08.618Z,10.2
2022-09-10T20:14:38.446Z,11.8
2022-09-10T20:18:45.201Z,10.3
2022-09-10T20:20:51.738Z,11.7
2022-09-10T20:22:55.158Z,11
2022-09-10T20:24:58.538Z,11.2
2022-09-10T20:29:05.293Z,13.8
2022-09-10T20:31:08.783Z,12.7
2022-09-10T20:33:12.128Z,12.7
2022-09-10T20:35:18.640Z,12.6
2022-09-10T20:41:28.986Z,12.8
2022-09-10T20:43:32.350Z,14
2022-09-10T20:47:39.210Z,13.6
2022-09-10T20:49:45.759Z,15.7
2022-09-10T20:51:49.185Z,14
2022-09-10T20:53:52.615Z,13.7
2022-09-10T20:55:56.035Z,12.9
2022-09-10T20:57:59.473Z,16.1
2022-09-10T21:00:02.919Z,15.6
2022-09-10T21:02:06.497Z,15
2022-09-10T21:04:12.875Z,16.9
2022-09-10T21:06:16.540Z,16.2
2022-09-10T21:08:19.780Z,15.4
2022-09-10T21:09:23.055Z,16.4
2022-09-10T21:15:33.424Z,16
2022-09-10T21:17:39.928Z,18.2
2022-09-10T21:19:43.377Z,16.4
2022-09-10T21:21:46.825Z,17.8
2022-09-10T21:23:50.284Z,16.9
2022-09-10T21:25:53.730Z,16
2022-09-10T21:27:57.188Z,17.4
2022-09-10T21:30:00.627Z,16
2022-09-10T21:32:07.166Z,16.7
2022-09-10T21:34:10.604Z,18.3
2022-09-10T21:36:14.045Z,16.5
2022-09-10T21:42:24.419Z,17.8
2022-09-10T21:44:27.883Z,17.5
2022-09-10T21:48:37.979Z,18.9
2022-09-10T21:50:41.338Z,16.5
2022-09-10T21:52:44.810Z,18
2022-09-10T21:54:48.258Z,18.9
2022-09-10T21:58:55.219Z,18.1
2022-09-10T22:03:05.191Z,18.1
2022-09-10T22:06:13.497Z,18.7
2022-09-10T22:08:16.904Z,18.6
2022-09-10T22:10:20.396Z,17.4
2022-09-10T22:12:23.825Z,17.8
2022-09-10T22:16:33.872Z,16.7
2022-09-10T22:18:37.335Z,18
2022-09-10T22:20:40.870Z,16.7
2022-09-10T22:22:44.252Z,19
2022-09-10T22:24:47.717Z,17.7
2022-09-10T22:26:51.188Z,16.6
2022-09-10T22:28:57.724Z,17.3
2022-09-10T22:31:01.198Z,18.4
2022-09-10T22:33:04.639Z,17.1
2022-09-10T22:35:08.095Z,18
2022-09-10T22:37:11.556Z,16.4
2022-09-10T22:39:15.000Z,17.3
2022-09-10T22:41:18.503Z,17.4
2022-09-10T22:43:25.033Z,18.7
2022-09-10T22:45:28.522Z,17.1
2022-09-10T22:47:31.962Z,17.8
2022-09-10T22:49:35.426Z,19.4
2022-09-10T22:51:38.876Z,17.4
2022-09-10T22:53:42.352Z,17.7
2022-09-10T22:55:45.800Z,19.2
2022-09-10T22:57:52.368Z,17.6
2022-09-10T22:59:55.807Z,18.5
2022-09-10T23:01:59.342Z,17.6
2022-09-10T23:05:06.082Z,18.7
2022-09-10T23:07:09.509Z,20.3
2022-09-10T23:09:13.021Z,19
2022-09-10T23:11:19.576Z,18.4
2022-09-10T23:13:23.078Z,18.5
2022-09-10T23:15:26.533Z,19.2
2022-09-10T23:17:30.867Z,20
2022-09-10T23:19:33.511Z,20.9
2022-09-10T23:21:36.949Z,20.3
2022-09-10T23:23:40.426Z,19.9
2022-09-10T23:25:47.049Z,21.3
2022-09-10T23:27:50.495Z,20.2
2022-09-10T23:29:53.979Z,20.1
2022-09-10T23:31:57.472Z,21.1
2022-09-10T23:34:00.942Z,19.1
2022-09-10T23:36:04.550Z,21
2022-09-10T23:38:07.890Z,20.5
2022-09-10T23:40:14.503Z,22.8
2022-09-10T23:42:17.978Z,21.2
2022-09-10T23:46:24.944Z,21.3
2022-09-10T23:48:28.420Z,20.6
2022-09-10T23:52:35.389Z,20.5
2022-09-10T23:54:41.978Z,21.7
2022-09-10T23:56:45.452Z,20.3
